sensor_id;sensor_type;location;lat;lon;timestamp;pressure;altitude;pressure_sealevel;temperature;humidity
53659;BME280;41524;35.624;139.698;2023-06-10T00:00:17;101038.00;;;22.39;66.63
53659;BME280;41524;35.624;139.698;2023-06-10T00:05:16;101039.00;;;22.02;67.40
53659;BME280;41524;35.624;139.698;2023-06-10T00:10:16;101050.00;;;22.39;67.02
53659;BME280;41524;35.624;139.698;2023-06-10T00:15:18;101050.00;;;22.20;66.92
53659;BME280;41524;35.624;139.698;2023-06-10T00:20:16;101051.00;;;21.22;69.93
53659;BME280;41524;35.624;139.698;2023-06-10T00:25:15;101055.00;;;20.73;71.08
53659;BME280;41524;35.624;139.698;2023-06-10T00:30:22;101050.00;;;21.86;67.63
53659;BME280;41524;35.624;139.698;2023-06-10T00:35:16;101048.00;;;21.71;68.49
53659;BME280;41524;35.624;139.698;2023-06-10T00:40:11;101047.00;;;21.62;69.39
53659;BME280;41524;35.624;139.698;2023-06-10T00:45:12;101045.00;;;22.22;66.65
53659;BME280;41524;35.624;139.698;2023-06-10T00:50:14;101044.00;;;22.31;66.22
53659;BME280;41524;35.624;139.698;2023-06-10T00:55:11;101024.00;;;23.13;64.04
53659;BME280;41524;35.624;139.698;2023-06-10T01:00:13;101035.00;;;21.29;68.07
53659;BME280;41524;35.624;139.698;2023-06-10T01:05:16;101038.00;;;23.18;64.72
53659;BME280;41524;35.624;139.698;2023-06-10T01:10:18;101028.00;;;23.32;64.36
53659;BME280;41524;35.624;139.698;2023-06-10T01:15:16;101044.00;;;23.49;62.78
53659;BME280;41524;35.624;139.698;2023-06-10T01:20:16;101044.00;;;23.52;63.06
53659;BME280;41524;35.624;139.698;2023-06-10T01:25:16;101045.00;;;25.20;59.41
53659;BME280;41524;35.624;139.698;2023-06-10T01:30:14;101059.00;;;24.00;62.82
53659;BME280;41524;35.624;139.698;2023-06-10T01:35:17;101028.00;;;23.94;61.54
53659;BME280;41524;35.624;139.698;2023-06-10T01:40:11;101043.00;;;24.62;60.47
53659;BME280;41524;35.624;139.698;2023-06-10T01:45:16;101034.00;;;23.46;61.94
53659;BME280;41524;35.624;139.698;2023-06-10T01:50:17;101039.00;;;23.33;62.37
53659;BME280;41524;35.624;139.698;2023-06-10T01:55:10;101042.00;;;23.17;62.85
53659;BME280;41524;35.624;139.698;2023-06-10T02:00:13;101038.00;;;22.56;64.29
53659;BME280;41524;35.624;139.698;2023-06-10T02:05:11;101027.00;;;25.69;59.04
53659;BME280;41524;35.624;139.698;2023-06-10T02:10:11;101027.00;;;24.07;60.26
53659;BME280;41524;35.624;139.698;2023-06-10T02:15:16;101025.00;;;24.82;59.23
53659;BME280;41524;35.624;139.698;2023-06-10T02:20:16;101040.00;;;23.14;61.74
53659;BME280;41524;35.624;139.698;2023-06-10T02:25:11;101040.00;;;23.56;61.86
53659;BME280;41524;35.624;139.698;2023-06-10T02:30:15;101026.00;;;23.48;62.20
53659;BME280;41524;35.624;139.698;2023-06-10T02:35:11;101012.00;;;23.34;62.03
53659;BME280;41524;35.624;139.698;2023-06-10T02:40:11;101017.00;;;22.31;64.69
53659;BME280;41524;35.624;139.698;2023-06-10T02:45:11;101018.00;;;23.13;62.73
53659;BME280;41524;35.624;139.698;2023-06-10T02:50:11;101016.00;;;22.78;63.00
53659;BME280;41524;35.624;139.698;2023-06-10T02:55:13;101025.00;;;24.18;60.89
53659;BME280;41524;35.624;139.698;2023-06-10T03:00:11;101007.00;;;23.69;61.96
53659;BME280;41524;35.624;139.698;2023-06-10T03:05:11;101022.00;;;22.59;64.37
53659;BME280;41524;35.624;139.698;2023-06-10T03:10:12;101008.00;;;22.46;66.31
53659;BME280;41524;35.624;139.698;2023-06-10T03:15:10;101002.00;;;22.99;65.31
53659;BME280;41524;35.624;139.698;2023-06-10T03:20:12;101015.00;;;21.91;66.48
53659;BME280;41524;35.624;139.698;2023-06-10T03:25:11;101012.00;;;22.50;67.10
53659;BME280;41524;35.624;139.698;2023-06-10T03:30:12;101019.00;;;21.41;70.64
53659;BME280;41524;35.624;139.698;2023-06-10T03:35:16;101006.00;;;22.76;67.40
53659;BME280;41524;35.624;139.698;2023-06-10T03:40:11;100991.00;;;21.74;68.72
53659;BME280;41524;35.624;139.698;2023-06-10T03:45:22;101009.00;;;22.19;68.25
53659;BME280;41524;35.624;139.698;2023-06-10T03:50:10;101002.00;;;22.30;67.66
53659;BME280;41524;35.624;139.698;2023-06-10T03:55:11;101009.00;;;22.25;67.46
53659;BME280;41524;35.624;139.698;2023-06-10T04:00:15;101002.00;;;22.18;67.75
53659;BME280;41524;35.624;139.698;2023-06-10T04:05:18;101000.00;;;22.40;66.96
53659;BME280;41524;35.624;139.698;2023-06-10T04:10:11;100995.00;;;22.39;66.97
53659;BME280;41524;35.624;139.698;2023-06-10T04:15:15;100994.00;;;22.99;63.94
53659;BME280;41524;35.624;139.698;2023-06-10T04:20:16;101014.00;;;21.47;67.40
53659;BME280;41524;35.624;139.698;2023-06-10T04:25:16;101022.00;;;20.66;71.30
53659;BME280;41524;35.624;139.698;2023-06-10T04:30:12;100998.00;;;21.45;69.71
53659;BME280;41524;35.624;139.698;2023-06-10T04:35:13;100990.00;;;21.06;71.55
53659;BME280;41524;35.624;139.698;2023-06-10T04:40:10;100989.00;;;21.32;69.97
53659;BME280;41524;35.624;139.698;2023-06-10T04:45:16;101011.00;;;21.56;68.74
53659;BME280;41524;35.624;139.698;2023-06-10T04:50:11;101033.00;;;20.87;70.19
53659;BME280;41524;35.624;139.698;2023-06-10T04:55:11;101032.00;;;21.62;70.15
53659;BME280;41524;35.624;139.698;2023-06-10T05:00:12;101032.00;;;21.00;72.43
53659;BME280;41524;35.624;139.698;2023-06-10T05:05:11;101023.00;;;22.14;68.96
53659;BME280;41524;35.624;139.698;2023-06-10T05:10:12;101028.00;;;21.24;70.24
53659;BME280;41524;35.624;139.698;2023-06-10T05:15:12;101025.00;;;21.22;71.05
53659;BME280;41524;35.624;139.698;2023-06-10T05:20:16;101041.00;;;21.55;70.93
53659;BME280;41524;35.624;139.698;2023-06-10T05:25:12;101053.00;;;20.17;74.65
53659;BME280;41524;35.624;139.698;2023-06-10T05:30:13;101045.00;;;20.33;73.61
53659;BME280;41524;35.624;139.698;2023-06-10T05:35:11;101044.00;;;20.02;75.12
53659;BME280;41524;35.624;139.698;2023-06-10T05:40:11;101052.00;;;19.95;76.18
53659;BME280;41524;35.624;139.698;2023-06-10T05:45:12;101058.00;;;21.37;72.67
53659;BME280;41524;35.624;139.698;2023-06-10T05:50:11;101072.00;;;20.69;71.21
53659;BME280;41524;35.624;139.698;2023-06-10T05:55:16;101057.00;;;21.10;69.94
53659;BME280;41524;35.624;139.698;2023-06-10T06:00:12;101061.00;;;21.39;69.52
53659;BME280;41524;35.624;139.698;2023-06-10T06:05:10;101052.00;;;21.69;68.29
53659;BME280;41524;35.624;139.698;2023-06-10T06:10:14;101045.00;;;20.87;69.76
53659;BME280;41524;35.624;139.698;2023-06-10T06:15:16;101038.00;;;21.37;68.84
53659;BME280;41524;35.624;139.698;2023-06-10T06:20:16;101045.00;;;21.34;68.96
53659;BME280;41524;35.624;139.698;2023-06-10T06:25:11;101043.00;;;22.22;66.96
53659;BME280;41524;35.624;139.698;2023-06-10T06:30:12;101032.00;;;21.12;69.37
53659;BME280;41524;35.624;139.698;2023-06-10T06:35:11;101041.00;;;22.28;67.08
53659;BME280;41524;35.624;139.698;2023-06-10T06:40:11;101037.00;;;21.14;69.53
53659;BME280;41524;35.624;139.698;2023-06-10T06:45:11;101030.00;;;21.66;68.54
53659;BME280;41524;35.624;139.698;2023-06-10T06:50:10;101017.00;;;20.49;71.20
53659;BME280;41524;35.624;139.698;2023-06-10T06:55:20;101002.00;;;20.59;71.62
53659;BME280;41524;35.624;139.698;2023-06-10T07:00:17;101001.00;;;22.36;67.99
53659;BME280;41524;35.624;139.698;2023-06-10T07:05:12;100991.00;;;20.65;71.37
53659;BME280;41524;35.624;139.698;2023-06-10T07:10:17;100993.00;;;21.46;69.19
53659;BME280;41524;35.624;139.698;2023-06-10T07:15:11;100992.00;;;20.64;71.35
53659;BME280;41524;35.624;139.698;2023-06-10T07:20:16;100995.00;;;21.16;69.42
53659;BME280;41524;35.624;139.698;2023-06-10T07:25:20;100999.00;;;21.62;68.32
53659;BME280;41524;35.624;139.698;2023-06-10T07:30:16;100999.00;;;21.90;67.44
53659;BME280;41524;35.624;139.698;2023-06-10T07:35:16;100997.00;;;20.55;71.42
53659;BME280;41524;35.624;139.698;2023-06-10T07:40:12;101004.00;;;21.25;70.04
53659;BME280;41524;35.624;139.698;2023-06-10T07:45:12;101007.00;;;20.25;73.11
53659;BME280;41524;35.624;139.698;2023-06-10T07:50:11;101011.00;;;20.09;74.40
53659;BME280;41524;35.624;139.698;2023-06-10T07:55:11;101009.00;;;19.71;74.91
53659;BME280;41524;35.624;139.698;2023-06-10T08:00:12;100994.00;;;20.53;73.74
53659;BME280;41524;35.624;139.698;2023-06-10T08:05:19;100986.00;;;20.73;73.75
53659;BME280;41524;35.624;139.698;2023-06-10T08:10:14;101000.00;;;20.02;74.51
53659;BME280;41524;35.624;139.698;2023-06-10T08:15:16;101008.00;;;19.84;75.31
53659;BME280;41524;35.624;139.698;2023-06-10T08:20:10;101019.00;;;20.32;74.01
53659;BME280;41524;35.624;139.698;2023-06-10T08:25:12;101029.00;;;20.79;71.48
53659;BME280;41524;35.624;139.698;2023-06-10T08:30:12;101049.00;;;19.55;74.24
53659;BME280;41524;35.624;139.698;2023-06-10T08:35:19;101058.00;;;19.73;73.59
53659;BME280;41524;35.624;139.698;2023-06-10T08:40:13;101056.00;;;19.83;72.95
53659;BME280;41524;35.624;139.698;2023-06-10T08:45:19;101054.00;;;20.14;72.26
53659;BME280;41524;35.624;139.698;2023-06-10T08:50:11;101067.00;;;19.28;72.33
53659;BME280;41524;35.624;139.698;2023-06-10T08:55:13;101082.00;;;20.46;68.81
53659;BME280;41524;35.624;139.698;2023-06-10T09:00:17;101092.00;;;19.93;69.25
53659;BME280;41524;35.624;139.698;2023-06-10T09:05:11;101105.00;;;20.02;69.38
53659;BME280;41524;35.624;139.698;2023-06-10T09:10:16;101122.00;;;19.88;70.12
53659;BME280;41524;35.624;139.698;2023-06-10T09:15:12;101125.00;;;20.30;69.10
53659;BME280;41524;35.624;139.698;2023-06-10T09:20:11;101121.00;;;19.79;70.72
53659;BME280;41524;35.624;139.698;2023-06-10T09:25:12;101111.00;;;20.44;69.62
53659;BME280;41524;35.624;139.698;2023-06-10T09:30:12;101112.00;;;18.97;73.52
53659;BME280;41524;35.624;139.698;2023-06-10T09:35:11;101114.00;;;18.94;74.51
53659;BME280;41524;35.624;139.698;2023-06-10T09:40:16;101112.00;;;19.43;74.10
53659;BME280;41524;35.624;139.698;2023-06-10T09:45:10;101114.00;;;20.72;70.82
53659;BME280;41524;35.624;139.698;2023-06-10T09:50:11;101127.00;;;19.68;73.37
53659;BME280;41524;35.624;139.698;2023-06-10T09:55:12;101133.00;;;20.41;71.77
53659;BME280;41524;35.624;139.698;2023-06-10T10:00:14;101134.00;;;18.60;77.13
53659;BME280;41524;35.624;139.698;2023-06-10T10:05:11;101133.00;;;19.28;75.56
53659;BME280;41524;35.624;139.698;2023-06-10T10:10:11;101130.00;;;18.67;77.28
53659;BME280;41524;35.624;139.698;2023-06-10T10:15:12;101126.00;;;19.56;75.38
53659;BME280;41524;35.624;139.698;2023-06-10T10:20:20;101131.00;;;19.68;74.83
53659;BME280;41524;35.624;139.698;2023-06-10T10:25:20;101129.00;;;20.32;72.22
53659;BME280;41524;35.624;139.698;2023-06-10T10:30:12;101135.00;;;18.89;75.64
53659;BME280;41524;35.624;139.698;2023-06-10T10:35:19;101125.00;;;19.22;76.53
53659;BME280;41524;35.624;139.698;2023-06-10T10:40:16;101137.00;;;19.39;75.03
53659;BME280;41524;35.624;139.698;2023-06-10T10:45:11;101138.00;;;18.59;77.59
53659;BME280;41524;35.624;139.698;2023-06-10T10:50:19;101132.00;;;18.28;80.00
53659;BME280;41524;35.624;139.698;2023-06-10T10:55:13;101134.00;;;18.84;78.54
53659;BME280;41524;35.624;139.698;2023-06-10T11:00:12;101129.00;;;18.45;79.98
53659;BME280;41524;35.624;139.698;2023-06-10T11:05:13;101127.00;;;20.44;74.12
53659;BME280;41524;35.624;139.698;2023-06-10T11:10:13;101144.00;;;19.35;76.59
53659;BME280;41524;35.624;139.698;2023-06-10T11:15:20;101148.00;;;20.64;72.98
53659;BME280;41524;35.624;139.698;2023-06-10T11:20:44;101161.00;;;20.66;73.45
53659;BME280;41524;35.624;139.698;2023-06-10T11:25:15;101173.00;;;19.18;76.95
53659;BME280;41524;35.624;139.698;2023-06-10T11:30:27;101187.00;;;18.87;79.25
53659;BME280;41524;35.624;139.698;2023-06-10T11:35:10;101195.00;;;18.80;80.49
53659;BME280;41524;35.624;139.698;2023-06-10T11:40:11;101190.00;;;18.98;80.84
53659;BME280;41524;35.624;139.698;2023-06-10T11:45:17;101179.00;;;19.35;79.42
53659;BME280;41524;35.624;139.698;2023-06-10T11:50:13;101197.00;;;18.25;83.28
53659;BME280;41524;35.624;139.698;2023-06-10T11:55:12;101196.00;;;18.88;80.93
53659;BME280;41524;35.624;139.698;2023-06-10T12:00:11;101191.00;;;18.78;82.21
53659;BME280;41524;35.624;139.698;2023-06-10T12:05:14;101180.00;;;19.12;80.04
53659;BME280;41524;35.624;139.698;2023-06-10T12:10:11;101168.00;;;19.47;79.07
53659;BME280;41524;35.624;139.698;2023-06-10T12:15:25;101164.00;;;19.42;79.76
53659;BME280;41524;35.624;139.698;2023-06-10T12:20:26;101163.00;;;19.21;80.53
53659;BME280;41524;35.624;139.698;2023-06-10T12:25:12;101181.00;;;19.92;77.84
53659;BME280;41524;35.624;139.698;2023-06-10T12:30:18;101177.00;;;19.26;78.41
53659;BME280;41524;35.624;139.698;2023-06-10T12:35:12;101180.00;;;19.64;78.14
53659;BME280;41524;35.624;139.698;2023-06-10T12:40:11;101190.00;;;18.88;80.49
53659;BME280;41524;35.624;139.698;2023-06-10T12:45:11;101191.00;;;19.07;81.09
53659;BME280;41524;35.624;139.698;2023-06-10T12:50:11;101187.00;;;19.73;77.70
53659;BME280;41524;35.624;139.698;2023-06-10T12:55:10;101192.00;;;20.00;76.45
53659;BME280;41524;35.624;139.698;2023-06-10T13:00:12;101199.00;;;19.54;77.98
53659;BME280;41524;35.624;139.698;2023-06-10T13:05:10;101210.00;;;20.20;75.87
53659;BME280;41524;35.624;139.698;2023-06-10T13:10:16;101204.00;;;20.45;75.23
53659;BME280;41524;35.624;139.698;2023-06-10T13:15:11;101198.00;;;21.28;72.43
53659;BME280;41524;35.624;139.698;2023-06-10T13:20:10;101196.00;;;20.63;74.15
53659;BME280;41524;35.624;139.698;2023-06-10T13:25:11;101186.00;;;21.55;70.82
53659;BME280;41524;35.624;139.698;2023-06-10T13:30:12;101181.00;;;21.69;70.33
53659;BME280;41524;35.624;139.698;2023-06-10T13:35:11;101182.00;;;18.80;78.85
53659;BME280;41524;35.624;139.698;2023-06-10T13:40:12;101183.00;;;20.74;73.33
53659;BME280;41524;35.624;139.698;2023-06-10T13:45:11;101183.00;;;20.19;75.64
53659;BME280;41524;35.624;139.698;2023-06-10T13:50:11;101181.00;;;18.85;78.82
53659;BME280;41524;35.624;139.698;2023-06-10T13:55:11;101174.00;;;19.58;76.95
53659;BME280;41524;35.624;139.698;2023-06-10T14:00:12;101170.00;;;19.22;77.12
53659;BME280;41524;35.624;139.698;2023-06-10T14:05:11;101155.00;;;20.84;72.46
53659;BME280;41524;35.624;139.698;2023-06-10T14:10:12;101157.00;;;20.13;74.04
53659;BME280;41524;35.624;139.698;2023-06-10T14:15:12;101155.00;;;20.16;73.54
53659;BME280;41524;35.624;139.698;2023-06-10T14:20:11;101160.00;;;20.89;71.81
53659;BME280;41524;35.624;139.698;2023-06-10T14:25:10;101168.00;;;19.23;76.33
53659;BME280;41524;35.624;139.698;2023-06-10T14:30:11;101162.00;;;18.45;78.79
53659;BME280;41524;35.624;139.698;2023-06-10T14:35:11;101159.00;;;20.78;73.20
53659;BME280;41524;35.624;139.698;2023-06-10T14:40:16;101157.00;;;19.30;76.19
53659;BME280;41524;35.624;139.698;2023-06-10T14:45:13;101147.00;;;19.99;73.89
53659;BME280;41524;35.624;139.698;2023-06-10T14:50:11;101149.00;;;19.29;76.13
53659;BME280;41524;35.624;139.698;2023-06-10T14:55:11;101143.00;;;18.24;79.42
53659;BME280;41524;35.624;139.698;2023-06-10T15:00:22;101134.00;;;18.85;77.54
53659;BME280;41524;35.624;139.698;2023-06-10T15:05:10;101134.00;;;19.93;74.18
53659;BME280;41524;35.624;139.698;2023-06-10T15:10:11;101119.00;;;20.56;72.65
53659;BME280;41524;35.624;139.698;2023-06-10T15:15:16;101115.00;;;19.20;75.70
53659;BME280;41524;35.624;139.698;2023-06-10T15:20:11;101125.00;;;20.64;71.57
53659;BME280;41524;35.624;139.698;2023-06-10T15:25:11;101126.00;;;20.81;71.07
53659;BME280;41524;35.624;139.698;2023-06-10T15:30:11;101124.00;;;18.53;77.06
53659;BME280;41524;35.624;139.698;2023-06-10T15:35:16;101111.00;;;18.87;76.60
53659;BME280;41524;35.624;139.698;2023-06-10T15:40:15;101106.00;;;18.85;76.44
53659;BME280;41524;35.624;139.698;2023-06-10T15:45:12;101101.00;;;19.41;74.74
53659;BME280;41524;35.624;139.698;2023-06-10T15:50:11;101093.00;;;18.53;76.71
53659;BME280;41524;35.624;139.698;2023-06-10T15:55:12;101076.00;;;18.73;76.44
53659;BME280;41524;35.624;139.698;2023-06-10T16:00:12;101081.00;;;19.93;73.21
53659;BME280;41524;35.624;139.698;2023-06-10T16:05:11;101078.00;;;19.03;75.77
53659;BME280;41524;35.624;139.698;2023-06-10T16:10:11;101060.00;;;18.78;76.42
53659;BME280;41524;35.624;139.698;2023-06-10T16:15:11;101063.00;;;18.74;78.17
53659;BME280;41524;35.624;139.698;2023-06-10T16:20:12;101065.00;;;18.29;78.94
53659;BME280;41524;35.624;139.698;2023-06-10T16:25:11;101064.00;;;19.72;76.08
53659;BME280;41524;35.624;139.698;2023-06-10T16:30:24;101068.00;;;19.51;75.72
53659;BME280;41524;35.624;139.698;2023-06-10T16:35:11;101057.00;;;19.83;75.19
53659;BME280;41524;35.624;139.698;2023-06-10T16:40:13;101058.00;;;20.68;72.52
53659;BME280;41524;35.624;139.698;2023-06-10T16:45:18;101063.00;;;19.11;77.01
53659;BME280;41524;35.624;139.698;2023-06-10T16:50:11;101061.00;;;19.39;75.46
53659;BME280;41524;35.624;139.698;2023-06-10T16:55:16;101057.00;;;18.99;77.28
53659;BME280;41524;35.624;139.698;2023-06-10T17:00:13;101040.00;;;21.20;71.06
53659;BME280;41524;35.624;139.698;2023-06-10T17:05:16;101032.00;;;20.80;71.74
53659;BME280;41524;35.624;139.698;2023-06-10T17:10:11;101039.00;;;19.79;73.39
53659;BME280;41524;35.624;139.698;2023-06-10T17:15:11;101046.00;;;21.46;69.08
53659;BME280;41524;35.624;139.698;2023-06-10T17:20:12;101044.00;;;21.87;67.15
53659;BME280;41524;35.624;139.698;2023-06-10T17:25:11;101054.00;;;21.96;67.65
53659;BME280;41524;35.624;139.698;2023-06-10T17:30:10;101056.00;;;19.58;74.58
53659;BME280;41524;35.624;139.698;2023-06-10T17:35:12;101054.00;;;20.17;74.48
53659;BME280;41524;35.624;139.698;2023-06-10T17:40:12;101078.00;;;20.10;74.60
53659;BME280;41524;35.624;139.698;2023-06-10T17:45:11;101075.00;;;20.38;74.36
53659;BME280;41524;35.624;139.698;2023-06-10T17:50:11;101088.00;;;18.99;78.19
53659;BME280;41524;35.624;139.698;2023-06-10T17:55:18;101095.00;;;19.15;78.35
53659;BME280;41524;35.624;139.698;2023-06-10T18:00:17;101094.00;;;19.96;76.37
53659;BME280;41524;35.624;139.698;2023-06-10T18:05:13;101094.00;;;20.03;76.71
53659;BME280;41524;35.624;139.698;2023-06-10T18:10:11;101091.00;;;18.91;79.27
53659;BME280;41524;35.624;139.698;2023-06-10T18:15:16;101084.00;;;20.14;76.51
53659;BME280;41524;35.624;139.698;2023-06-10T18:20:13;101086.00;;;20.99;74.18
53659;BME280;41524;35.624;139.698;2023-06-10T18:25:11;101096.00;;;19.33;78.32
53659;BME280;41524;35.624;139.698;2023-06-10T18:30:11;101090.00;;;20.58;74.26
53659;BME280;41524;35.624;139.698;2023-06-10T18:35:10;101078.00;;;21.49;71.24
53659;BME280;41524;35.624;139.698;2023-06-10T18:40:11;101081.00;;;19.76;76.10
53659;BME280;41524;35.624;139.698;2023-06-10T18:45:11;101064.00;;;22.46;69.02
53659;BME280;41524;35.624;139.698;2023-06-10T18:50:11;101058.00;;;20.98;73.04
53659;BME280;41524;35.624;139.698;2023-06-10T18:55:11;101066.00;;;22.97;67.82
53659;BME280;41524;35.624;139.698;2023-06-10T19:00:16;101059.00;;;22.26;69.05
53659;BME280;41524;35.624;139.698;2023-06-10T19:05:11;101057.00;;;22.00;69.64
53659;BME280;41524;35.624;139.698;2023-06-10T19:10:12;101060.00;;;22.43;68.70
53659;BME280;41524;35.624;139.698;2023-06-10T19:15:12;101050.00;;;21.64;71.77
53659;BME280;41524;35.624;139.698;2023-06-10T19:20:16;101043.00;;;21.69;72.06
53659;BME280;41524;35.624;139.698;2023-06-10T19:25:10;101045.00;;;22.20;70.61
53659;BME280;41524;35.624;139.698;2023-06-10T19:30:11;101048.00;;;22.39;69.91
53659;BME280;41524;35.624;139.698;2023-06-10T19:35:11;101049.00;;;21.41;73.37
53659;BME280;41524;35.624;139.698;2023-06-10T19:40:11;101059.00;;;22.25;69.82
53659;BME280;41524;35.624;139.698;2023-06-10T19:45:13;101075.00;;;22.41;69.91
53659;BME280;41524;35.624;139.698;2023-06-10T19:50:16;101083.00;;;21.78;71.69
53659;BME280;41524;35.624;139.698;2023-06-10T19:55:11;101090.00;;;22.29;69.45
53659;BME280;41524;35.624;139.698;2023-06-10T20:00:11;101091.00;;;21.14;72.65
53659;BME280;41524;35.624;139.698;2023-06-10T20:05:10;101080.00;;;20.54;76.54
53659;BME280;41524;35.624;139.698;2023-06-10T20:10:12;101076.00;;;20.58;76.30
53659;BME280;41524;35.624;139.698;2023-06-10T20:15:11;101080.00;;;21.58;74.22
53659;BME280;41524;35.624;139.698;2023-06-10T20:20:12;101083.00;;;21.24;75.19
53659;BME280;41524;35.624;139.698;2023-06-10T20:25:10;101113.00;;;22.24;73.04
53659;BME280;41524;35.624;139.698;2023-06-10T20:30:12;101124.00;;;21.62;74.20
53659;BME280;41524;35.624;139.698;2023-06-10T20:35:11;101140.00;;;19.40;78.44
53659;BME280;41524;35.624;139.698;2023-06-10T20:40:11;101139.00;;;19.34;78.87
53659;BME280;41524;35.624;139.698;2023-06-10T20:45:11;101136.00;;;22.44;72.18
53659;BME280;41524;35.624;139.698;2023-06-10T20:50:11;101116.00;;;21.19;76.54
53659;BME280;41524;35.624;139.698;2023-06-10T20:55:11;101114.00;;;21.45;75.09
53659;BME280;41524;35.624;139.698;2023-06-10T21:00:16;101125.00;;;22.08;73.76
53659;BME280;41524;35.624;139.698;2023-06-10T21:05:10;101147.00;;;22.07;73.89
53659;BME280;41524;35.624;139.698;2023-06-10T21:10:13;101151.00;;;18.62;83.20
53659;BME280;41524;35.624;139.698;2023-06-10T21:15:20;101151.00;;;19.51;81.03
53659;BME280;41524;35.624;139.698;2023-06-10T21:20:12;101138.00;;;21.83;74.76
53659;BME280;41524;35.624;139.698;2023-06-10T21:25:15;101145.00;;;20.71;75.69
53659;BME280;41524;35.624;139.698;2023-06-10T21:30:11;101154.00;;;20.70;77.29
53659;BME280;41524;35.624;139.698;2023-06-10T21:35:12;101134.00;;;21.74;75.67
53659;BME280;41524;35.624;139.698;2023-06-10T21:40:13;101162.00;;;19.68;81.57
53659;BME280;41524;35.624;139.698;2023-06-10T21:45:12;101153.00;;;20.34;79.33
53659;BME280;41524;35.624;139.698;2023-06-10T21:50:10;101155.00;;;19.50;81.00
53659;BME280;41524;35.624;139.698;2023-06-10T21:55:16;101157.00;;;19.92;80.90
53659;BME280;41524;35.624;139.698;2023-06-10T22:00:16;101152.00;;;21.40;77.95
53659;BME280;41524;35.624;139.698;2023-06-10T22:05:10;101160.00;;;19.27;82.74
53659;BME280;41524;35.624;139.698;2023-06-10T22:10:11;101157.00;;;20.62;79.16
53659;BME280;41524;35.624;139.698;2023-06-10T22:15:12;101158.00;;;19.85;79.35
53659;BME280;41524;35.624;139.698;2023-06-10T22:20:12;101161.00;;;20.47;77.21
53659;BME280;41524;35.624;139.698;2023-06-10T22:25:14;101152.00;;;21.75;73.78
53659;BME280;41524;35.624;139.698;2023-06-10T22:30:13;101156.00;;;21.07;74.57
53659;BME280;41524;35.624;139.698;2023-06-10T22:35:11;101158.00;;;21.51;70.21
53659;BME280;41524;35.624;139.698;2023-06-10T22:40:10;101170.00;;;21.05;72.03
53659;BME280;41524;35.624;139.698;2023-06-10T22:45:15;101168.00;;;22.18;68.41
53659;BME280;41524;35.624;139.698;2023-06-10T22:50:23;101165.00;;;21.93;69.92
53659;BME280;41524;35.624;139.698;2023-06-10T22:55:11;101172.00;;;21.39;72.10
53659;BME280;41524;35.624;139.698;2023-06-10T23:00:21;101168.00;;;20.66;75.12
53659;BME280;41524;35.624;139.698;2023-06-10T23:05:22;101147.00;;;19.77;80.94
53659;BME280;41524;35.624;139.698;2023-06-10T23:10:22;101142.00;;;20.28;80.01
53659;BME280;41524;35.624;139.698;2023-06-10T23:15:21;101146.00;;;21.12;75.74
53659;BME280;41524;35.624;139.698;2023-06-10T23:20:12;101146.00;;;22.39;72.63
53659;BME280;41524;35.624;139.698;2023-06-10T23:25:11;101147.00;;;20.70;76.54
53659;BME280;41524;35.624;139.698;2023-06-10T23:30:17;101153.00;;;21.86;73.07
53659;BME280;41524;35.624;139.698;2023-06-10T23:35:11;101148.00;;;21.78;72.64
53659;BME280;41524;35.624;139.698;2023-06-10T23:40:12;101148.00;;;21.01;77.11
53659;BME280;41524;35.624;139.698;2023-06-10T23:45:11;101143.00;;;20.25;80.53
53659;BME280;41524;35.624;139.698;2023-06-10T23:50:21;101144.00;;;20.00;81.55
53659;BME280;41524;35.624;139.698;2023-06-10T23:55:17;101135.00;;;21.23;77.90
